Pagina principală
METAR-TAF:

METAR-TAF

Aeroporturi :

Strother Field

Winfield-Arkansas City, Kansas, Statele Unite ale Americii

Latitudine: 37-10-05N, longitudine: 097-02-13W, elevație: 353 m

Observații meteo curente

Raportul a fost făcut în urmă cu 17 de minute, la 22:54 UTC
Vânt 12 kt de la Sud-vest cu rafale de până la 20 kt
Temperatură 36°C
Umiditate 42%
Presiune 1011 hPa
Vizibilitate: 16.1 km
Nori fragmentați la o înălțime de 9000 picior
Nori fragmentați la o înălțime de 11000 picior

METAR: KWLD 222254Z AUTO 23012G20KT 10SM BKN090 BKN110 36/21 A2986 RMK AO2 PK WND 23026/2215 SLP095 T03560206

Ora: 18:11 (23:11 UTC)


TAF: lipsă

Observații și prognoze meteo pentru peste 4.000 de aeroporturi (rapoarte METAR și TAF).

Stațiile disponibile sunt reprezentate pe hartă prin puncte galbene și roșii.

Țineți indicatorul mouse-ului pe punctul dorit pentru a vedea denumirea stației.

Apoi, faceți clic pentru a vedea observațiile și prognozele meteorologice.

Pentru a schimba harta: Pentru mărire, faceți clic pe butoanele verzi cu cruce neagră; pentru micșorare, pe butonul verde cu o liniuță; pentru hărți învecinate, pe săgețile verzi.


METAR-TAF: